Time;durP1;ratioP1;P1;durP2;ratioP2;P2;SDS_P1;SDS_P2;PMS_P1;PMS_P2;Temp;Humidity;BMP_temperature;BMP_pressure;BME280_temperature;BME280_humidity;BME280_pressure;Samples;Min_cycle;Max_cycle;Signal;HPM_P1;HPM_P2
2021/08/06 00:01:05;;;;;;;11.98;6.85;;;;;;;26.25;100.00;95437.53;5072003;28;20203;-82
2021/08/06 00:03:34;;;;;;;10.02;6.13;;;;;;;26.29;100.00;95430.53;5072277;28;20689;-81
2021/08/06 00:06:04;;;;;;;12.82;6.88;;;;;;;26.27;100.00;95438.06;5072023;28;20220;-82
2021/08/06 00:08:31;;;;;;;12.60;7.57;;;;;;;26.19;100.00;95432.47;5072567;28;20219;-81
2021/08/06 00:10:58;;;;;;;14.50;7.88;;;;;;;26.32;100.00;95432.66;5072229;28;20292;-82
2021/08/06 00:13:27;;;;;;;15.95;6.95;;;;;;;26.38;100.00;95441.50;5071946;28;20743;-81
2021/08/06 00:15:57;;;;;;;14.48;7.15;;;;;;;26.43;100.00;95437.97;5072207;28;20272;-82
2021/08/06 00:18:24;;;;;;;16.20;7.90;;;;;;;26.47;100.00;95428.28;5071927;28;20201;-82
2021/08/06 00:20:52;;;;;;;11.85;6.80;;;;;;;26.57;100.00;95422.84;5071383;28;20296;-81
2021/08/06 00:23:19;;;;;;;13.80;7.78;;;;;;;26.54;100.00;95423.38;5071978;28;20631;-82
2021/08/06 00:25:46;;;;;;;15.68;8.02;;;;;;;26.54;100.00;95418.00;5071664;28;20344;-82
2021/08/06 00:28:14;;;;;;;13.60;7.03;;;;;;;26.59;100.00;95423.34;5072263;28;20193;-82
2021/08/06 00:30:43;;;;;;;18.67;7.45;;;;;;;26.57;100.00;95412.06;5071677;28;20296;-82
2021/08/06 00:33:10;;;;;;;11.25;7.72;;;;;;;26.52;100.00;95402.09;5071649;28;20196;-82
2021/08/06 00:35:37;;;;;;;14.43;7.32;;;;;;;26.68;100.00;95400.09;5071618;28;20194;-82
2021/08/06 00:38:05;;;;;;;15.57;7.88;;;;;;;26.51;100.00;95397.00;5072351;28;20582;-82
2021/08/06 00:40:32;;;;;;;15.73;7.88;;;;;;;26.62;100.00;95401.22;5071540;28;20193;-82
2021/08/06 00:42:59;;;;;;;16.15;7.07;;;;;;;26.57;100.00;95401.28;5071690;28;20203;-82
2021/08/06 00:45:27;;;;;;;20.50;7.82;;;;;;;26.54;100.00;95408.03;5071207;28;20260;-81
2021/08/06 00:47:55;;;;;;;10.52;6.35;;;;;;;26.56;100.00;95405.03;5071940;28;20634;-82
2021/08/06 00:50:23;;;;;;;9.57;6.32;;;;;;;26.50;100.00;95406.97;5071483;28;20250;-81
2021/08/06 00:52:51;;;;;;;12.18;5.90;;;;;;;26.54;100.00;95402.63;5071489;28;20690;-82
2021/08/06 00:55:18;;;;;;;9.73;6.45;;;;;;;26.52;100.00;95404.00;5071605;28;20201;-82
2021/08/06 00:57:45;;;;;;;7.25;5.35;;;;;;;26.58;100.00;95397.50;5071534;28;20201;-82
2021/08/06 01:00:14;;;;;;;13.25;6.40;;;;;;;26.59;100.00;95399.09;5071829;28;20298;-81
2021/08/06 01:02:50;;;;;;;14.10;7.30;;;;;;;26.55;100.00;95398.03;5052998;28;20252;-81
2021/08/06 01:05:21;;;;;;;14.57;5.90;;;;;;;26.56;100.00;95405.84;5051071;28;20208;-81
2021/08/06 01:07:54;;;;;;;12.20;7.15;;;;;;;26.50;100.00;95406.19;5051208;28;20289;-81
2021/08/06 01:10:24;;;;;;;14.25;6.30;;;;;;;26.50;100.00;95401.59;5051369;28;20555;-82
2021/08/06 01:12:55;;;;;;;11.18;5.75;;;;;;;26.49;100.00;95408.03;5051074;28;20202;-81
2021/08/06 01:15:24;;;;;;;9.60;5.55;;;;;;;26.60;100.00;95405.28;5051292;28;20187;-81
2021/08/06 01:17:52;;;;;;;8.13;4.45;;;;;;;26.53;100.00;95400.19;5051213;28;20264;-81
2021/08/06 01:20:27;;;;;;;9.93;5.63;;;;;;;26.45;100.00;95390.00;5051108;28;20281;-83
2021/08/06 01:23:02;;;;;;;12.88;5.70;;;;;;;26.55;100.00;95393.44;5051008;28;20744;-83
2021/08/06 01:25:44;;;;;;;12.95;5.53;;;;;;;26.52;100.00;95391.31;5050928;28;20296;-81
2021/08/06 01:28:12;;;;;;;8.65;5.47;;;;;;;26.49;100.00;95383.78;5051157;28;20186;-82
2021/08/06 01:30:40;;;;;;;9.52;5.50;;;;;;;26.52;100.00;95367.06;5054878;28;20718;-82
2021/08/06 01:33:07;;;;;;;9.57;5.53;;;;;;;26.50;100.00;95346.91;5054807;28;20194;-82
2021/08/06 01:35:34;;;;;;;8.77;5.38;;;;;;;26.51;100.00;95305.38;5054561;28;20194;-82
2021/08/06 01:38:02;;;;;;;10.27;5.93;;;;;;;26.47;100.00;95288.97;5054816;28;20245;-83
2021/08/06 01:40:32;;;;;;;13.60;6.43;;;;;;;26.37;100.00;95290.94;5054629;28;20193;-82
2021/08/06 04:18:52;;;;;;;5.97;3.85;;;;;;;25.67;100.00;95359.19;5065727;28;20544;-80
2021/08/06 04:21:20;;;;;;;9.70;4.43;;;;;;;25.76;100.00;95360.22;5065580;28;20201;-80
2021/08/06 04:23:47;;;;;;;7.43;3.65;;;;;;;25.75;100.00;95357.81;5065192;28;20200;-80
2021/08/06 04:26:14;;;;;;;7.28;3.75;;;;;;;25.84;100.00;95359.69;5065793;28;20281;-80
2021/08/06 04:28:42;;;;;;;4.82;3.63;;;;;;;25.85;100.00;95358.59;5065393;28;20292;-80
2021/08/06 04:31:09;;;;;;;6.05;3.65;;;;;;;25.93;100.00;95369.84;5065600;28;20197;-80
2021/08/06 04:33:37;;;;;;;8.30;4.45;;;;;;;26.01;100.00;95363.88;5065150;28;20209;-80
2021/08/06 04:36:07;;;;;;;9.75;4.30;;;;;;;26.09;100.00;95363.31;5065453;28;20236;-80
2021/08/06 04:38:34;;;;;;;5.15;3.58;;;;;;;26.10;100.00;95370.28;5065349;28;20626;-80
2021/08/06 04:41:01;;;;;;;8.32;3.35;;;;;;;26.08;100.00;95367.91;5065417;28;20281;-80
2021/08/06 04:43:29;;;;;;;6.28;3.35;;;;;;;26.07;100.00;95360.88;5065482;28;20246;-80
2021/08/06 04:45:56;;;;;;;7.43;3.42;;;;;;;26.10;100.00;95362.22;5065807;27;20270;-80
2021/08/06 04:48:24;;;;;;;5.03;3.83;;;;;;;25.98;100.00;95372.50;5065044;28;20697;-80
2021/08/06 04:50:51;;;;;;;9.70;4.53;;;;;;;25.98;100.00;95365.25;5065032;27;20569;-80
2021/08/06 04:53:20;;;;;;;6.55;4.18;;;;;;;26.02;100.00;95377.06;5065109;28;20245;-80
2021/08/06 04:55:47;;;;;;;7.30;3.90;;;;;;;25.96;100.00;95390.84;5065183;28;20194;-80
2021/08/06 04:58:15;;;;;;;8.02;3.85;;;;;;;25.96;100.00;95374.69;5064998;28;20233;-80
2021/08/06 05:00:42;;;;;;;6.78;4.13;;;;;;;26.04;100.00;95366.03;5064902;28;20244;-80
2021/08/06 05:03:09;;;;;;;7.20;3.45;;;;;;;26.00;100.00;95368.47;5065017;28;20201;-78
2021/08/06 05:05:36;;;;;;;6.88;3.38;;;;;;;26.07;100.00;95370.84;5065014;28;20236;-78
2021/08/06 05:08:04;;;;;;;4.30;3.83;;;;;;;26.09;100.00;95372.19;5065079;28;20229;-78
2021/08/06 05:10:33;;;;;;;7.95;3.70;;;;;;;25.99;100.00;95368.75;5065141;28;20220;-78
2021/08/06 05:13:00;;;;;;;7.47;3.90;;;;;;;25.88;100.00;95362.63;5064914;28;20269;-78
2021/08/06 05:15:28;;;;;;;7.38;3.88;;;;;;;25.99;100.00;95366.88;5065221;27;20200;-78
2021/08/06 05:17:55;;;;;;;7.40;3.80;;;;;;;26.00;100.00;95362.28;5061909;28;20236;-78
2021/08/06 05:20:22;;;;;;;5.40;3.42;;;;;;;26.02;100.00;95373.59;5051220;28;20662;-81
2021/08/06 05:22:49;;;;;;;6.57;3.65;;;;;;;26.00;100.00;95371.16;5051409;28;20729;-80
2021/08/06 05:25:17;;;;;;;9.48;4.38;;;;;;;26.00;100.00;95364.97;5051318;28;20206;-80
2021/08/06 05:27:46;;;;;;;8.93;4.45;;;;;;;26.04;100.00;95372.19;5051149;28;20261;-80
2021/08/06 05:30:14;;;;;;;6.35;4.18;;;;;;;26.09;100.00;95374.88;5050608;28;20256;-80
2021/08/06 05:32:41;;;;;;;8.00;4.80;;;;;;;26.03;100.00;95388.66;5051063;28;20280;-80
2021/08/06 05:35:09;;;;;;;8.70;4.35;;;;;;;26.08;100.00;95402.06;5051538;28;20585;-80
2021/08/06 05:37:36;;;;;;;10.15;5.13;;;;;;;26.05;100.00;95408.84;5050981;28;20718;-80
2021/08/06 05:40:05;;;;;;;13.95;4.45;;;;;;;26.18;100.00;95406.59;5051171;28;20234;-80
2021/08/06 05:42:32;;;;;;;8.38;4.82;;;;;;;26.30;100.00;95415.16;5050661;28;20198;-80
2021/08/06 05:45:01;;;;;;;13.40;4.97;;;;;;;26.35;100.00;95414.31;5051387;28;20230;-80
2021/08/06 05:47:28;;;;;;;8.63;4.63;;;;;;;26.27;100.00;95407.63;5050686;28;20222;-80
2021/08/06 05:49:56;;;;;;;7.63;4.22;;;;;;;26.21;100.00;95396.06;5050674;28;20271;-80
2021/08/06 05:52:23;;;;;;;11.25;5.32;;;;;;;26.28;100.00;95391.19;5050574;28;20229;-80
2021/08/06 05:54:50;;;;;;;9.23;4.85;;;;;;;26.28;100.00;95385.00;5050965;28;20250;-80
2021/08/06 05:57:18;;;;;;;12.90;5.47;;;;;;;26.47;100.00;95395.97;5050981;28;20198;-80
2021/08/06 05:59:45;;;;;;;10.82;4.70;;;;;;;26.58;100.00;95389.41;5050720;28;20241;-79
2021/08/06 06:02:14;;;;;;;7.00;4.88;;;;;;;26.67;100.00;95389.59;5050371;28;20194;-79
2021/08/06 06:04:41;;;;;;;12.80;4.88;;;;;;;26.84;100.00;95391.88;5050647;28;20194;-79
2021/08/06 06:07:08;;;;;;;11.90;5.30;;;;;;;27.07;100.00;95388.44;5050481;28;20279;-80
2021/08/06 06:09:36;;;;;;;12.15;5.68;;;;;;;26.95;100.00;95391.53;5050325;28;20204;-79
2021/08/06 06:12:03;;;;;;;8.85;5.35;;;;;;;27.07;100.00;95398.44;5050592;28;20250;-79
2021/08/06 06:14:30;;;;;;;8.23;4.70;;;;;;;26.92;100.00;95402.06;5050546;28;20241;-80
2021/08/06 06:16:58;;;;;;;6.88;4.25;;;;;;;26.91;100.00;95406.63;5050414;28;20234;-80
2021/08/06 06:19:27;;;;;;;11.95;5.55;;;;;;;26.86;100.00;95409.38;5050355;28;20202;-79
2021/08/06 06:21:54;;;;;;;8.15;4.70;;;;;;;27.06;100.00;95405.72;5050387;28;20683;-80
2021/08/06 06:24:21;;;;;;;7.28;4.47;;;;;;;27.21;100.00;95404.78;5050248;28;20225;-80
2021/08/06 06:26:49;;;;;;;12.52;5.35;;;;;;;27.52;100.00;95407.97;5050672;28;20194;-78
2021/08/06 06:29:16;;;;;;;8.18;5.20;;;;;;;27.68;100.00;95412.13;5049971;28;20261;-77
2021/08/06 06:31:44;;;;;;;10.65;5.28;;;;;;;27.78;100.00;95405.84;5049446;28;20229;-77
2021/08/06 06:34:11;;;;;;;7.65;5.10;;;;;;;27.88;100.00;95405.69;5049897;28;20690;-77
2021/08/06 06:36:40;;;;;;;5.95;4.63;;;;;;;27.98;100.00;95402.06;5042322;28;20285;-77
2021/08/06 06:39:07;;;;;;;8.13;5.40;;;;;;;28.15;100.00;95401.56;5049942;28;20190;-78
2021/08/06 06:41:34;;;;;;;11.77;5.53;;;;;;;28.36;100.00;95402.06;5049270;28;20296;-77
2021/08/06 06:44:01;;;;;;;7.55;5.50;;;;;;;28.37;100.00;95404.50;5048838;28;20657;-78
2021/08/06 06:46:29;;;;;;;8.23;5.90;;;;;;;28.43;100.00;95387.13;5050391;28;20198;-77
2021/08/06 06:48:56;;;;;;;12.25;5.93;;;;;;;28.57;100.00;95395.28;5049842;28;20226;-78
2021/08/06 06:51:23;;;;;;;9.38;4.72;;;;;;;28.89;100.00;95397.25;5050020;28;20202;-78
2021/08/06 06:53:52;;;;;;;10.93;4.95;;;;;;;28.85;100.00;95404.34;5049530;28;20193;-77
2021/08/06 06:56:19;;;;;;;11.73;5.07;;;;;;;28.79;100.00;95399.31;5050136;28;20197;-78
2021/08/06 06:58:47;;;;;;;9.82;6.60;;;;;;;28.92;100.00;95395.81;5050040;28;20193;-78
2021/08/06 07:01:14;;;;;;;11.32;5.03;;;;;;;28.79;100.00;95391.19;5049920;28;20229;-78
2021/08/06 07:03:41;;;;;;;10.52;6.13;;;;;;;28.71;100.00;95386.44;5049722;28;20611;-78
2021/08/06 07:06:09;;;;;;;10.32;5.35;;;;;;;28.83;100.00;95386.78;5049693;28;20584;-78
2021/08/06 07:08:38;;;;;;;7.95;5.45;;;;;;;28.96;100.00;95388.75;5049490;28;20222;-78
2021/08/06 07:11:06;;;;;;;6.60;4.53;;;;;;;29.21;100.00;95390.22;5049736;28;20266;-77
2021/08/06 07:13:34;;;;;;;9.80;4.80;;;;;;;29.59;100.00;95395.50;5049332;28;20314;-78
2021/08/06 07:16:01;;;;;;;8.95;4.78;;;;;;;29.56;100.00;95391.44;5049588;28;20666;-78
2021/08/06 07:18:29;;;;;;;6.20;4.75;;;;;;;29.68;100.00;95398.28;5049128;28;20290;-78
2021/08/06 07:20:56;;;;;;;6.82;4.88;;;;;;;29.61;100.00;95398.69;5049617;28;20202;-78
2021/08/06 07:23:23;;;;;;;8.65;4.93;;;;;;;29.60;100.00;95397.91;5049100;28;20195;-78
2021/08/06 07:25:50;;;;;;;11.55;4.78;;;;;;;29.44;100.00;95396.53;5049730;28;20198;-78
2021/08/06 07:28:19;;;;;;;5.82;4.15;;;;;;;29.73;100.00;95400.91;5049106;28;20257;-79
2021/08/06 07:30:47;;;;;;;6.35;4.50;;;;;;;29.84;100.00;95402.31;5049347;28;20251;-79
2021/08/06 07:33:14;;;;;;;9.13;4.50;;;;;;;29.92;100.00;95409.72;5049295;28;20225;-78
2021/08/06 07:35:41;;;;;;;7.00;4.43;;;;;;;29.73;100.00;95393.59;5049647;28;20194;-78
2021/08/06 07:38:09;;;;;;;3.92;3.50;;;;;;;29.72;100.00;95402.00;5049070;28;20197;-78
2021/08/06 07:40:36;;;;;;;5.22;3.55;;;;;;;29.27;100.00;95404.44;5049417;27;20323;-78
2021/08/06 07:43:04;;;;;;;4.35;3.80;;;;;;;29.19;100.00;95410.56;5048531;28;20206;-78
2021/08/06 07:45:32;;;;;;;5.63;3.30;;;;;;;29.57;100.00;95403.06;5049226;28;20204;-78
2021/08/06 07:48:00;;;;;;;3.92;3.22;;;;;;;29.76;100.00;95397.63;5048954;28;20217;-78
2021/08/06 07:53:02;;;;;;;5.05;3.33;;;;;;;29.76;100.00;95394.91;5199804;22;20232;-77
2021/08/06 07:55:30;;;;;;;5.25;3.28;;;;;;;29.34;100.00;95410.28;5016962;28;20215;-77
2021/08/06 07:57:57;;;;;;;5.45;3.75;;;;;;;29.00;100.00;95403.31;5012057;28;20291;-77
2021/08/06 08:00:24;;;;;;;6.88;3.67;;;;;;;28.88;100.00;95395.59;5012574;28;20227;-77
2021/08/06 08:02:55;;;;;;;6.40;4.07;;;;;;;29.20;100.00;95409.44;5011791;28;20207;-78
2021/08/06 08:05:23;;;;;;;8.20;3.70;;;;;;;29.42;100.00;95404.19;5011571;28;20206;-77
2021/08/06 08:07:51;;;;;;;4.57;3.53;;;;;;;29.33;100.00;95401.34;5011924;28;20227;-77
2021/08/06 08:10:19;;;;;;;5.60;3.45;;;;;;;29.74;100.00;95406.03;5011200;28;20216;-77
2021/08/06 08:12:47;;;;;;;4.63;4.15;;;;;;;29.70;100.00;95413.16;5011764;28;20203;-77
2021/08/06 08:15:15;;;;;;;4.63;2.97;;;;;;;29.32;100.00;95413.28;5012414;28;20282;-77
2021/08/06 08:17:42;;;;;;;4.75;3.58;;;;;;;29.03;100.00;95410.84;5011907;28;20192;-78
2021/08/06 08:20:12;;;;;;;5.35;3.33;;;;;;;29.09;100.00;95419.66;5011840;28;20211;-78
2021/08/06 08:22:40;;;;;;;7.00;3.53;;;;;;;29.36;100.00;95410.78;5026643;28;20229;-77
2021/08/06 08:25:09;;;;;;;5.72;3.35;;;;;;;29.97;100.00;95423.16;5024726;28;20246;-78
2021/08/06 08:27:36;;;;;;;6.93;2.90;;;;;;;30.36;100.00;95413.69;5011649;28;20254;-78
2021/08/06 08:30:07;;;;;;;5.63;3.03;;;;;;;30.11;100.00;95428.56;5028739;28;20591;-78
2021/08/06 08:32:34;;;;;;;3.50;3.20;;;;;;;30.17;100.00;95426.53;5023627;28;20676;-77
2021/08/06 08:35:02;;;;;;;5.15;3.28;;;;;;;30.31;100.00;95430.09;5011808;28;20222;-77
2021/08/06 08:37:30;;;;;;;4.70;2.95;;;;;;;30.37;100.00;95420.72;5010388;28;20210;-78
2021/08/06 08:39:58;;;;;;;5.00;2.83;;;;;;;30.14;100.00;95432.59;5011644;28;20196;-78
2021/08/06 08:42:25;;;;;;;6.00;2.80;;;;;;;29.90;100.00;95425.50;5011328;28;20345;-78
2021/08/06 08:44:52;;;;;;;4.50;2.67;;;;;;;30.05;100.00;95424.38;5011775;28;20230;-78
2021/08/06 08:47:23;;;;;;;13.75;3.20;;;;;;;30.22;100.00;95423.78;5011596;28;20242;-78
2021/08/06 08:49:54;;;;;;;3.60;2.67;;;;;;;30.22;100.00;95429.19;5011804;28;20184;-78
2021/08/06 08:52:23;;;;;;;2.65;2.40;;;;;;;30.14;100.00;95427.97;5011184;28;20281;-78
2021/08/06 08:54:52;;;;;;;3.75;2.92;;;;;;;30.17;100.00;95427.38;5014677;28;20199;-77
2021/08/06 08:57:20;;;;;;;4.65;2.78;;;;;;;30.22;100.00;95424.56;5015286;28;20683;-78
2021/08/06 08:59:48;;;;;;;5.13;2.80;;;;;;;30.38;100.00;95419.63;5015383;28;20191;-78
2021/08/06 09:02:15;;;;;;;3.35;2.58;;;;;;;30.48;100.00;95424.81;5015177;28;20203;-78
2021/08/06 09:04:45;;;;;;;4.22;2.58;;;;;;;30.72;100.00;95426.44;5015280;28;20203;-78
2021/08/06 09:07:29;;;;;;;2.97;2.67;;;;;;;30.68;100.00;95425.44;5014995;28;20226;-78
2021/08/06 09:10:10;;;;;;;8.65;3.65;;;;;;;30.30;100.00;95418.41;5015068;28;20182;-78
2021/08/06 09:12:52;;;;;;;8.63;3.15;;;;;;;29.89;100.00;95421.16;5015030;28;20187;-78
2021/08/06 09:15:41;;;;;;;6.35;3.35;;;;;;;29.55;100.00;95419.63;5013856;28;20802;-78
2021/08/06 09:18:26;;;;;;;4.32;3.40;;;;;;;30.26;100.00;95417.44;5013409;28;20233;-78
2021/08/06 09:20:55;;;;;;;4.38;3.35;;;;;;;30.61;100.00;95416.94;5014807;28;20195;-78
2021/08/06 09:23:42;;;;;;;5.47;3.25;;;;;;;30.46;100.00;95415.38;5015067;28;20261;-78
2021/08/06 09:26:34;;;;;;;7.47;3.40;;;;;;;30.89;100.00;95409.50;5014703;28;20192;-78
2021/08/06 09:29:03;;;;;;;5.95;3.38;;;;;;;30.73;100.00;95418.00;5014471;28;20203;-78
2021/08/06 09:31:31;;;;;;;6.55;3.08;;;;;;;30.32;100.00;95401.88;5014705;28;20209;-78
2021/08/06 09:34:26;;;;;;;4.80;4.05;;;;;;;30.84;100.00;95402.31;5014626;28;20203;-78
2021/08/06 09:36:57;;;;;;;3.42;3.17;;;;;;;30.67;100.00;95402.16;5014483;28;20246;-78
2021/08/06 09:39:26;;;;;;;3.50;3.20;;;;;;;30.55;100.00;95408.09;5014416;28;20570;-78
2021/08/06 09:41:55;;;;;;;3.97;3.20;;;;;;;30.39;100.00;95404.97;5014383;28;20253;-78
2021/08/06 09:44:24;;;;;;;4.72;3.88;;;;;;;30.06;100.00;95405.06;5014574;28;20254;-78
2021/08/06 09:46:53;;;;;;;6.50;3.42;;;;;;;30.40;100.00;95406.56;5014358;28;20199;-78
2021/08/06 09:49:21;;;;;;;6.20;3.67;;;;;;;30.37;100.00;95404.44;5014151;28;20227;-78
2021/08/06 09:51:50;;;;;;;3.42;3.13;;;;;;;30.36;100.00;95397.44;5014078;28;20286;-78
2021/08/06 09:54:28;;;;;;;5.68;3.42;;;;;;;30.28;100.00;95401.69;5014374;28;20199;-78
2021/08/06 09:57:06;;;;;;;4.55;3.25;;;;;;;30.49;100.00;95390.38;5014268;28;20647;-78
2021/08/06 09:59:35;;;;;;;5.75;3.67;;;;;;;30.43;100.00;95392.38;5014292;28;20214;-78
2021/08/06 10:02:14;;;;;;;4.93;3.22;;;;;;;30.69;100.00;95405.34;5013869;28;20676;-78
2021/08/06 10:05:09;;;;;;;4.20;3.08;;;;;;;30.48;100.00;95391.47;5014058;28;20203;-78
2021/08/06 10:07:38;;;;;;;4.40;3.40;;;;;;;30.71;100.00;95389.56;4968729;28;20199;-79
2021/08/06 10:10:08;;;;;;;3.67;3.45;;;;;;;30.90;100.00;95390.22;5013872;28;20274;-78
2021/08/06 10:12:37;;;;;;;5.95;3.65;;;;;;;31.06;100.00;95392.53;5013926;28;20199;-78
2021/08/06 10:15:06;;;;;;;7.68;4.07;;;;;;;31.07;100.00;95386.00;5013987;28;20199;-79
2021/08/06 10:17:34;;;;;;;4.30;3.67;;;;;;;30.83;100.00;95379.00;5013505;28;20200;-79
2021/08/06 10:20:01;;;;;;;3.38;3.08;;;;;;;30.84;100.00;95363.53;5013762;28;20204;-78
2021/08/06 10:22:28;;;;;;;3.72;3.42;;;;;;;30.70;100.00;95369.78;5013681;28;20200;-79
2021/08/06 10:24:57;;;;;;;3.92;3.45;;;;;;;30.90;100.00;95375.84;5013792;28;20195;-79
2021/08/06 10:27:25;;;;;;;4.75;3.70;;;;;;;30.96;100.00;95361.03;5013540;28;20195;-79
2021/08/06 10:30:04;;;;;;;4.28;3.67;;;;;;;31.16;100.00;95362.44;5013732;28;20277;-79
2021/08/06 10:32:32;;;;;;;3.83;3.53;;;;;;;31.36;100.00;95361.91;5013528;28;20187;-78
2021/08/06 10:35:19;;;;;;;4.45;3.72;;;;;;;31.00;100.00;95365.56;5013574;28;20203;-78
2021/08/06 10:37:59;;;;;;;3.83;3.53;;;;;;;30.95;100.00;95354.00;5013133;28;20245;-78
2021/08/06 10:40:57;;;;;;;5.10;3.42;;;;;;;30.83;100.00;95359.19;5013521;28;20184;-79
2021/08/06 10:43:48;;;;;;;3.90;3.60;;;;;;;30.93;100.00;95365.19;5012624;28;20206;-78
2021/08/06 10:46:19;;;;;;;4.30;3.58;;;;;;;31.09;100.00;95362.06;5009461;28;20207;-78
2021/08/06 10:48:48;;;;;;;4.40;4.00;;;;;;;31.11;100.00;95368.00;5013047;28;20706;-78
2021/08/06 10:51:31;;;;;;;5.57;3.42;;;;;;;31.37;100.00;95374.38;5013064;28;20261;-79
2021/08/06 10:54:38;;;;;;;4.25;3.95;;;;;;;30.82;100.00;95365.75;5013220;28;20206;-79
2021/08/06 10:57:33;;;;;;;4.22;3.75;;;;;;;31.07;100.00;95367.00;5013398;28;20211;-78
2021/08/06 11:00:03;;;;;;;6.75;3.50;;;;;;;30.71;100.00;95367.88;5013480;28;20258;-79
2021/08/06 11:02:46;;;;;;;4.85;3.83;;;;;;;30.24;100.00;95375.47;5012985;28;20191;-79
2021/08/06 11:05:46;;;;;;;4.32;3.80;;;;;;;30.08;100.00;95372.28;5012756;28;20286;-79
2021/08/06 11:08:48;;;;;;;6.63;3.80;;;;;;;30.23;100.00;95366.53;5012803;28;20225;-79
2021/08/06 11:12:00;;;;;;;3.60;3.15;;;;;;;30.35;100.00;95368.72;4933520;29;20194;-78
2021/08/06 11:15:04;;;;;;;5.00;3.85;;;;;;;30.22;100.00;95374.97;4911336;29;20299;-78
2021/08/06 11:17:45;;;;;;;3.75;3.45;;;;;;;29.97;100.00;95379.03;4932812;29;20194;-78
2021/08/06 11:20:17;;;;;;;4.53;3.97;;;;;;;29.61;100.00;95358.09;4933383;29;20191;-79
2021/08/06 11:22:46;;;;;;;3.42;3.13;;;;;;;29.44;100.00;95372.19;4933152;29;20761;-79
2021/08/06 11:25:17;;;;;;;4.35;3.95;;;;;;;29.50;100.00;95364.78;4932947;29;20202;-79
2021/08/06 11:27:46;;;;;;;4.65;4.18;;;;;;;29.39;100.00;95369.59;4933114;29;20691;-79
2021/08/06 11:30:16;;;;;;;4.82;3.78;;;;;;;29.19;100.00;95368.06;4933177;29;20766;-79
2021/08/06 11:32:50;;;;;;;6.07;3.97;;;;;;;29.00;100.00;95373.56;4932923;29;20231;-78
2021/08/06 11:35:20;;;;;;;5.25;4.18;;;;;;;29.09;100.00;95377.16;4932980;29;20592;-79
2021/08/06 11:37:50;;;;;;;3.88;3.55;;;;;;;28.98;100.00;95370.28;4932950;29;20202;-79
2021/08/06 11:40:19;;;;;;;5.82;4.03;;;;;;;28.75;100.00;95365.81;4933072;29;20190;-79
2021/08/06 11:42:47;;;;;;;6.93;4.43;;;;;;;28.87;100.00;95358.06;4992767;28;20204;-79
2021/08/06 11:45:16;;;;;;;4.22;3.83;;;;;;;28.69;100.00;95357.00;5012148;28;20266;-79
2021/08/06 11:47:45;;;;;;;5.72;3.70;;;;;;;28.45;100.00;95370.63;5012466;28;20203;-78
2021/08/06 11:50:17;;;;;;;3.90;3.60;;;;;;;28.14;100.00;95373.75;5012612;28;20331;-78
2021/08/06 11:52:47;;;;;;;6.68;4.50;;;;;;;28.17;100.00;95380.47;5012011;28;20235;-78
2021/08/06 11:55:16;;;;;;;5.90;3.72;;;;;;;27.98;100.00;95383.16;5012288;28;20199;-78
2021/08/06 11:57:50;;;;;;;5.35;3.63;;;;;;;28.14;100.00;95384.56;5011879;28;20230;-78
2021/08/06 12:00:23;;;;;;;6.82;3.55;;;;;;;28.09;100.00;95368.44;5012253;28;20196;-79
2021/08/06 12:03:11;;;;;;;3.25;3.00;;;;;;;27.97;100.00;95381.53;5012407;28;20191;-79
2021/08/06 12:05:42;;;;;;;3.88;3.58;;;;;;;27.70;100.00;95374.81;5012236;28;20192;-79
2021/08/06 12:08:24;;;;;;;3.45;2.85;;;;;;;27.66;100.00;95373.78;5012129;28;20626;-78
2021/08/06 12:10:54;;;;;;;5.07;2.60;;;;;;;27.37;100.00;95373.06;5012081;28;20660;-78
2021/08/06 12:13:24;;;;;;;2.60;2.05;;;;;;;27.17;100.00;95379.47;5011945;28;20195;-78
2021/08/06 12:16:05;;;;;;;2.47;2.28;;;;;;;27.14;100.00;95382.75;5012108;28;20249;-78
2021/08/06 12:18:32;;;;;;;3.10;2.80;;;;;;;26.96;100.00;95378.84;5011655;28;20655;-78
2021/08/06 12:21:05;;;;;;;4.18;3.08;;;;;;;26.98;100.00;95390.97;5012319;28;20230;-78
2021/08/06 12:23:33;;;;;;;3.13;2.10;;;;;;;26.86;100.00;95373.53;5011939;28;20227;-78
2021/08/06 12:26:05;;;;;;;3.58;2.55;;;;;;;26.97;100.00;95392.03;5012009;28;20219;-78
2021/08/06 12:28:33;;;;;;;2.45;2.25;;;;;;;26.97;100.00;95383.94;5012566;28;20199;-78
2021/08/06 12:31:16;;;;;;;2.40;2.25;;;;;;;26.89;100.00;95370.28;5015940;28;20230;-78
2021/08/06 12:33:46;;;;;;;2.90;2.60;;;;;;;26.76;100.00;95382.50;5015809;28;20215;-78
2021/08/06 12:36:18;;;;;;;3.28;3.00;;;;;;;26.56;100.00;95378.09;5015596;28;20199;-78
2021/08/06 12:38:46;;;;;;;3.72;2.80;;;;;;;26.57;100.00;95387.81;5015598;28;20728;-78
2021/08/06 12:41:31;;;;;;;4.53;3.70;;;;;;;26.45;100.00;95387.31;5016016;28;20199;-78
2021/08/06 12:44:18;;;;;;;3.67;3.38;;;;;;;26.38;100.00;95392.22;5015608;28;20714;-78
2021/08/06 12:47:06;;;;;;;5.25;3.35;;;;;;;26.29;100.00;95390.13;5015568;28;20245;-78
2021/08/06 12:49:35;;;;;;;4.20;2.97;;;;;;;26.22;100.00;95392.31;5015555;28;20258;-77
2021/08/06 12:52:08;;;;;;;3.72;2.72;;;;;;;26.15;100.00;95386.44;5015158;28;20239;-78
2021/08/06 12:54:38;;;;;;;5.15;3.05;;;;;;;26.12;100.00;95392.38;5015541;28;20580;-78
2021/08/06 12:57:09;;;;;;;2.75;2.55;;;;;;;26.01;100.00;95406.97;5015235;28;20199;-78
2021/08/06 12:59:38;;;;;;;4.13;3.72;;;;;;;25.92;100.00;95403.25;5015787;28;20242;-78
2021/08/06 13:02:17;;;;;;;3.13;2.92;;;;;;;25.88;100.00;95411.06;5015094;28;20250;-78
2021/08/06 13:04:45;;;;;;;3.42;3.10;;;;;;;25.83;100.00;95411.88;5015074;28;20241;-78
2021/08/06 13:07:31;;;;;;;5.32;3.25;;;;;;;25.88;100.00;95407.59;5015048;28;20257;-78
2021/08/06 13:10:01;;;;;;;3.83;3.30;;;;;;;25.97;100.00;95414.78;5015174;28;20648;-77
2021/08/06 13:12:29;;;;;;;6.00;3.90;;;;;;;25.83;100.00;95414.56;5015000;28;20200;-77
2021/08/06 13:14:57;;;;;;;4.13;3.53;;;;;;;25.89;100.00;95414.56;5015135;28;20203;-78
2021/08/06 13:17:25;;;;;;;3.88;3.58;;;;;;;25.97;100.00;95419.38;5014965;28;20214;-78
2021/08/06 13:19:53;;;;;;;4.78;4.32;;;;;;;25.85;100.00;95409.72;5015046;28;20198;-78
2021/08/06 13:22:21;;;;;;;3.95;3.65;;;;;;;25.92;100.00;95405.94;5014552;28;20204;-78
2021/08/06 13:24:52;;;;;;;4.55;4.15;;;;;;;25.99;100.00;95411.84;5015239;28;20223;-77
2021/08/06 13:27:20;;;;;;;4.22;3.90;;;;;;;26.13;100.00;95407.44;5014781;28;20630;-78
2021/08/06 13:29:47;;;;;;;5.65;3.80;;;;;;;26.27;100.00;95413.03;5014781;28;20273;-78
2021/08/06 13:32:14;;;;;;;5.35;3.95;;;;;;;26.36;100.00;95418.59;5014390;28;20238;-78
2021/08/06 13:34:42;;;;;;;4.65;4.25;;;;;;;26.57;100.00;95414.75;5014664;28;20199;-78
2021/08/06 13:37:09;;;;;;;5.63;4.28;;;;;;;26.55;100.00;95414.22;5014566;28;20210;-78
2021/08/06 13:39:37;;;;;;;5.72;5.22;;;;;;;26.57;100.00;95412.06;5013966;28;20191;-78
2021/08/06 13:42:07;;;;;;;4.35;3.97;;;;;;;26.29;100.00;95417.06;5014773;28;20583;-78
2021/08/06 13:44:35;;;;;;;4.80;4.38;;;;;;;26.32;100.00;95410.28;5014916;28;20238;-78
2021/08/06 13:47:05;;;;;;;5.68;5.07;;;;;;;26.44;100.00;95412.66;5014308;28;20591;-78
2021/08/06 13:49:33;;;;;;;5.40;4.90;;;;;;;26.34;100.00;95405.44;5014354;28;20231;-78
2021/08/06 13:52:00;;;;;;;6.28;5.57;;;;;;;26.22;100.00;95402.25;5013851;28;20751;-78
2021/08/06 13:54:28;;;;;;;5.82;5.22;;;;;;;26.31;100.00;95409.47;5014417;28;20196;-78
2021/08/06 13:56:55;;;;;;;6.72;6.05;;;;;;;26.52;100.00;95410.19;5014472;28;20628;-78
2021/08/06 13:59:25;;;;;;;6.32;5.82;;;;;;;26.89;100.00;95403.44;5014569;28;20265;-78
2021/08/06 14:01:52;;;;;;;7.20;6.53;;;;;;;26.99;100.00;95402.56;5013781;28;20679;-77
2021/08/06 14:04:20;;;;;;;6.32;5.88;;;;;;;27.00;100.00;95412.25;5014231;28;20207;-78
2021/08/06 14:06:48;;;;;;;6.32;5.40;;;;;;;27.11;100.00;95419.13;5013959;28;20192;-78
2021/08/06 14:09:15;;;;;;;8.73;6.78;;;;;;;27.00;100.00;95428.41;5013883;28;20738;-77
2021/08/06 14:11:43;;;;;;;8.27;6.57;;;;;;;26.96;100.00;95427.38;5014118;28;20204;-78
2021/08/06 14:14:10;;;;;;;7.00;6.40;;;;;;;26.96;100.00;95417.41;5013974;28;20557;-77
2021/08/06 14:16:39;;;;;;;7.15;6.60;;;;;;;26.73;100.00;95424.31;5013897;28;20239;-78
2021/08/06 14:19:06;;;;;;;7.03;6.32;;;;;;;26.77;100.00;95414.56;5013873;28;20640;-77